sensor_id;sensor_type;location;lat;lon;timestamp;P1;durP1;ratioP1;P2;durP2;ratioP2
29570;SDS011;16814;52.118;11.436;2023-07-13T00:02:16;5.10;;;1.90;;
29570;SDS011;16814;52.118;11.436;2023-07-13T00:04:41;10.57;;;2.47;;
29570;SDS011;16814;52.118;11.436;2023-07-13T00:07:07;6.10;;;2.30;;
29570;SDS011;16814;52.118;11.436;2023-07-13T00:09:33;6.40;;;2.05;;
29570;SDS011;16814;52.118;11.436;2023-07-13T00:12:00;8.77;;;2.22;;
29570;SDS011;16814;52.118;11.436;2023-07-13T00:14:28;7.60;;;2.15;;
29570;SDS011;16814;52.118;11.436;2023-07-13T00:16:54;7.53;;;2.38;;
29570;SDS011;16814;52.118;11.436;2023-07-13T00:19:20;4.63;;;2.17;;
29570;SDS011;16814;52.118;11.436;2023-07-13T00:21:46;4.85;;;2.20;;
29570;SDS011;16814;52.118;11.436;2023-07-13T00:24:14;8.55;;;2.17;;
29570;SDS011;16814;52.118;11.436;2023-07-13T00:26:41;9.35;;;2.10;;
29570;SDS011;16814;52.118;11.436;2023-07-13T00:29:10;7.13;;;2.47;;
29570;SDS011;16814;52.118;11.436;2023-07-13T00:31:37;5.15;;;2.30;;
29570;SDS011;16814;52.118;11.436;2023-07-13T00:34:02;4.87;;;2.10;;
29570;SDS011;16814;52.118;11.436;2023-07-13T00:36:29;5.30;;;2.20;;
29570;SDS011;16814;52.118;11.436;2023-07-13T00:38:55;8.30;;;2.60;;
29570;SDS011;16814;52.118;11.436;2023-07-13T00:41:21;5.70;;;2.60;;
29570;SDS011;16814;52.118;11.436;2023-07-13T00:43:47;8.30;;;3.03;;
29570;SDS011;16814;52.118;11.436;2023-07-13T00:48:59;7.20;;;2.60;;
29570;SDS011;16814;52.118;11.436;2023-07-13T00:51:32;7.78;;;2.80;;
29570;SDS011;16814;52.118;11.436;2023-07-13T00:54:04;7.80;;;3.08;;
29570;SDS011;16814;52.118;11.436;2023-07-13T00:56:32;10.45;;;3.58;;
29570;SDS011;16814;52.118;11.436;2023-07-13T00:58:59;5.93;;;3.25;;
29570;SDS011;16814;52.118;11.436;2023-07-13T01:01:27;6.95;;;2.70;;
29570;SDS011;16814;52.118;11.436;2023-07-13T01:03:53;7.00;;;3.03;;
29570;SDS011;16814;52.118;11.436;2023-07-13T01:06:19;6.43;;;2.80;;
29570;SDS011;16814;52.118;11.436;2023-07-13T01:08:44;6.57;;;2.63;;
29570;SDS011;16814;52.118;11.436;2023-07-13T01:11:10;6.73;;;2.50;;
29570;SDS011;16814;52.118;11.436;2023-07-13T01:13:36;8.90;;;3.00;;
29570;SDS011;16814;52.118;11.436;2023-07-13T01:16:03;5.60;;;2.47;;
29570;SDS011;16814;52.118;11.436;2023-07-13T01:18:38;6.28;;;2.58;;
29570;SDS011;16814;52.118;11.436;2023-07-13T01:21:04;5.28;;;2.40;;
29570;SDS011;16814;52.118;11.436;2023-07-13T01:23:30;7.20;;;2.75;;
29570;SDS011;16814;52.118;11.436;2023-07-13T01:25:57;5.57;;;2.50;;
29570;SDS011;16814;52.118;11.436;2023-07-13T01:28:24;6.88;;;2.83;;
29570;SDS011;16814;52.118;11.436;2023-07-13T01:30:52;8.18;;;2.63;;
29570;SDS011;16814;52.118;11.436;2023-07-13T01:33:18;11.03;;;2.80;;
29570;SDS011;16814;52.118;11.436;2023-07-13T01:35:44;5.68;;;2.60;;
29570;SDS011;16814;52.118;11.436;2023-07-13T01:38:11;6.88;;;2.78;;
29570;SDS011;16814;52.118;11.436;2023-07-13T01:40:39;6.07;;;2.33;;
29570;SDS011;16814;52.118;11.436;2023-07-13T01:43:05;9.13;;;2.37;;
29570;SDS011;16814;52.118;11.436;2023-07-13T01:45:31;5.82;;;2.28;;
29570;SDS011;16814;52.118;11.436;2023-07-13T01:47:56;5.93;;;2.50;;
29570;SDS011;16814;52.118;11.436;2023-07-13T01:50:23;6.78;;;2.55;;
29570;SDS011;16814;52.118;11.436;2023-07-13T01:52:49;6.45;;;2.40;;
29570;SDS011;16814;52.118;11.436;2023-07-13T01:55:15;7.00;;;2.65;;
29570;SDS011;16814;52.118;11.436;2023-07-13T01:57:41;7.18;;;2.65;;
29570;SDS011;16814;52.118;11.436;2023-07-13T02:00:06;8.13;;;2.67;;
29570;SDS011;16814;52.118;11.436;2023-07-13T02:02:34;5.63;;;2.42;;
29570;SDS011;16814;52.118;11.436;2023-07-13T02:05:00;6.03;;;2.57;;
29570;SDS011;16814;52.118;11.436;2023-07-13T02:07:25;4.90;;;2.37;;
29570;SDS011;16814;52.118;11.436;2023-07-13T02:09:51;8.77;;;2.42;;
29570;SDS011;16814;52.118;11.436;2023-07-13T02:12:17;7.03;;;2.70;;
29570;SDS011;16814;52.118;11.436;2023-07-13T02:14:42;9.93;;;2.83;;
29570;SDS011;16814;52.118;11.436;2023-07-13T02:17:09;7.17;;;2.50;;
29570;SDS011;16814;52.118;11.436;2023-07-13T02:19:35;6.35;;;2.65;;
29570;SDS011;16814;52.118;11.436;2023-07-13T02:22:01;5.55;;;2.42;;
29570;SDS011;16814;52.118;11.436;2023-07-13T02:24:27;5.03;;;2.50;;
29570;SDS011;16814;52.118;11.436;2023-07-13T02:26:52;6.20;;;2.70;;
29570;SDS011;16814;52.118;11.436;2023-07-13T02:29:18;7.25;;;2.70;;
29570;SDS011;16814;52.118;11.436;2023-07-13T02:31:43;13.55;;;2.85;;
29570;SDS011;16814;52.118;11.436;2023-07-13T02:34:09;8.60;;;2.40;;
29570;SDS011;16814;52.118;11.436;2023-07-13T02:36:34;4.97;;;2.27;;
29570;SDS011;16814;52.118;11.436;2023-07-13T02:39:01;9.23;;;2.37;;
29570;SDS011;16814;52.118;11.436;2023-07-13T02:41:28;9.73;;;2.80;;
29570;SDS011;16814;52.118;11.436;2023-07-13T02:43:54;6.13;;;2.40;;
29570;SDS011;16814;52.118;11.436;2023-07-13T02:46:27;5.97;;;2.30;;
29570;SDS011;16814;52.118;11.436;2023-07-13T02:48:53;6.70;;;2.45;;
29570;SDS011;16814;52.118;11.436;2023-07-13T02:51:19;7.50;;;2.57;;
29570;SDS011;16814;52.118;11.436;2023-07-13T02:53:45;7.60;;;2.50;;
29570;SDS011;16814;52.118;11.436;2023-07-13T02:56:10;7.13;;;2.40;;
29570;SDS011;16814;52.118;11.436;2023-07-13T02:58:36;6.17;;;2.20;;
29570;SDS011;16814;52.118;11.436;2023-07-13T03:01:06;6.57;;;2.35;;
29570;SDS011;16814;52.118;11.436;2023-07-13T03:03:35;8.30;;;2.40;;
29570;SDS011;16814;52.118;11.436;2023-07-13T03:06:02;8.18;;;2.58;;
29570;SDS011;16814;52.118;11.436;2023-07-13T03:08:30;6.78;;;2.33;;
29570;SDS011;16814;52.118;11.436;2023-07-13T03:11:02;7.37;;;2.30;;
29570;SDS011;16814;52.118;11.436;2023-07-13T03:13:39;6.68;;;2.40;;
29570;SDS011;16814;52.118;11.436;2023-07-13T03:16:05;6.93;;;2.25;;
29570;SDS011;16814;52.118;11.436;2023-07-13T03:18:31;5.00;;;2.17;;
29570;SDS011;16814;52.118;11.436;2023-07-13T03:20:57;8.73;;;2.60;;
29570;SDS011;16814;52.118;11.436;2023-07-13T03:23:23;4.68;;;2.15;;
29570;SDS011;16814;52.118;11.436;2023-07-13T03:25:50;10.15;;;2.65;;
29570;SDS011;16814;52.118;11.436;2023-07-13T03:28:25;6.72;;;2.80;;
29570;SDS011;16814;52.118;11.436;2023-07-13T03:30:58;11.00;;;2.70;;
29570;SDS011;16814;52.118;11.436;2023-07-13T03:33:31;5.95;;;2.50;;
29570;SDS011;16814;52.118;11.436;2023-07-13T03:35:57;11.20;;;2.80;;
29570;SDS011;16814;52.118;11.436;2023-07-13T03:38:23;8.23;;;2.85;;
29570;SDS011;16814;52.118;11.436;2023-07-13T03:40:49;11.85;;;2.92;;
29570;SDS011;16814;52.118;11.436;2023-07-13T03:43:15;9.38;;;3.25;;
29570;SDS011;16814;52.118;11.436;2023-07-13T03:45:41;6.20;;;2.83;;
29570;SDS011;16814;52.118;11.436;2023-07-13T03:48:06;9.50;;;3.10;;
29570;SDS011;16814;52.118;11.436;2023-07-13T03:50:32;6.82;;;2.88;;
29570;SDS011;16814;52.118;11.436;2023-07-13T03:52:58;8.50;;;2.90;;
29570;SDS011;16814;52.118;11.436;2023-07-13T03:55:24;10.50;;;3.13;;
29570;SDS011;16814;52.118;11.436;2023-07-13T03:57:53;6.80;;;2.75;;
29570;SDS011;16814;52.118;11.436;2023-07-13T04:00:23;6.72;;;2.88;;
29570;SDS011;16814;52.118;11.436;2023-07-13T04:02:48;10.23;;;3.40;;
29570;SDS011;16814;52.118;11.436;2023-07-13T04:05:14;9.70;;;2.97;;
29570;SDS011;16814;52.118;11.436;2023-07-13T04:07:40;7.40;;;2.80;;
29570;SDS011;16814;52.118;11.436;2023-07-13T04:10:06;9.40;;;2.83;;
29570;SDS011;16814;52.118;11.436;2023-07-13T04:12:32;4.88;;;2.22;;
29570;SDS011;16814;52.118;11.436;2023-07-13T04:14:57;8.03;;;2.97;;
29570;SDS011;16814;52.118;11.436;2023-07-13T04:17:23;6.20;;;2.37;;
29570;SDS011;16814;52.118;11.436;2023-07-13T04:19:48;6.18;;;2.67;;
29570;SDS011;16814;52.118;11.436;2023-07-13T04:22:14;7.20;;;3.00;;
29570;SDS011;16814;52.118;11.436;2023-07-13T04:24:40;9.90;;;3.03;;
29570;SDS011;16814;52.118;11.436;2023-07-13T04:27:05;7.70;;;3.35;;
29570;SDS011;16814;52.118;11.436;2023-07-13T04:29:32;8.90;;;3.70;;
29570;SDS011;16814;52.118;11.436;2023-07-13T04:31:57;10.48;;;3.65;;
29570;SDS011;16814;52.118;11.436;2023-07-13T04:34:23;9.77;;;3.60;;
29570;SDS011;16814;52.118;11.436;2023-07-13T04:36:49;10.10;;;3.80;;
29570;SDS011;16814;52.118;11.436;2023-07-13T04:39:15;9.30;;;4.07;;
29570;SDS011;16814;52.118;11.436;2023-07-13T04:41:41;10.77;;;3.80;;
29570;SDS011;16814;52.118;11.436;2023-07-13T04:44:06;12.43;;;3.83;;
29570;SDS011;16814;52.118;11.436;2023-07-13T04:46:32;9.03;;;4.10;;
29570;SDS011;16814;52.118;11.436;2023-07-13T04:48:57;6.07;;;3.47;;
29570;SDS011;16814;52.118;11.436;2023-07-13T04:51:23;11.52;;;3.53;;
29570;SDS011;16814;52.118;11.436;2023-07-13T04:53:49;9.52;;;3.35;;
29570;SDS011;16814;52.118;11.436;2023-07-13T04:56:15;8.85;;;3.50;;
29570;SDS011;16814;52.118;11.436;2023-07-13T04:58:41;9.17;;;3.27;;
29570;SDS011;16814;52.118;11.436;2023-07-13T05:01:06;9.13;;;3.47;;
29570;SDS011;16814;52.118;11.436;2023-07-13T05:03:33;11.40;;;3.60;;
29570;SDS011;16814;52.118;11.436;2023-07-13T05:06:00;6.65;;;3.10;;
29570;SDS011;16814;52.118;11.436;2023-07-13T05:08:28;9.23;;;3.20;;
29570;SDS011;16814;52.118;11.436;2023-07-13T05:10:54;8.53;;;3.00;;
29570;SDS011;16814;52.118;11.436;2023-07-13T05:13:20;10.45;;;3.78;;
29570;SDS011;16814;52.118;11.436;2023-07-13T05:15:47;11.73;;;3.70;;
29570;SDS011;16814;52.118;11.436;2023-07-13T05:18:20;9.93;;;3.60;;
29570;SDS011;16814;52.118;11.436;2023-07-13T05:20:45;8.27;;;3.33;;
29570;SDS011;16814;52.118;11.436;2023-07-13T05:23:11;9.93;;;3.63;;
29570;SDS011;16814;52.118;11.436;2023-07-13T05:25:36;10.27;;;3.67;;
29570;SDS011;16814;52.118;11.436;2023-07-13T05:28:02;7.93;;;3.10;;
29570;SDS011;16814;52.118;11.436;2023-07-13T05:30:28;8.13;;;3.20;;
29570;SDS011;16814;52.118;11.436;2023-07-13T05:32:53;8.60;;;3.40;;
29570;SDS011;16814;52.118;11.436;2023-07-13T05:35:19;12.15;;;3.45;;
29570;SDS011;16814;52.118;11.436;2023-07-13T05:37:44;7.22;;;3.50;;
29570;SDS011;16814;52.118;11.436;2023-07-13T05:40:10;8.70;;;3.60;;
29570;SDS011;16814;52.118;11.436;2023-07-13T05:42:36;47.40;;;5.10;;
29570;SDS011;16814;52.118;11.436;2023-07-13T05:45:01;21.85;;;4.65;;
29570;SDS011;16814;52.118;11.436;2023-07-13T05:47:27;10.77;;;3.65;;
29570;SDS011;16814;52.118;11.436;2023-07-13T05:49:53;25.57;;;3.80;;
29570;SDS011;16814;52.118;11.436;2023-07-13T05:52:18;12.15;;;3.47;;
29570;SDS011;16814;52.118;11.436;2023-07-13T05:54:44;7.80;;;3.10;;
29570;SDS011;16814;52.118;11.436;2023-07-13T05:57:10;8.43;;;3.37;;
29570;SDS011;16814;52.118;11.436;2023-07-13T05:59:35;8.07;;;2.97;;
29570;SDS011;16814;52.118;11.436;2023-07-13T06:02:02;15.60;;;3.38;;
29570;SDS011;16814;52.118;11.436;2023-07-13T06:04:27;10.35;;;3.15;;
29570;SDS011;16814;52.118;11.436;2023-07-13T06:06:53;17.08;;;3.08;;
29570;SDS011;16814;52.118;11.436;2023-07-13T06:09:18;10.35;;;2.70;;
29570;SDS011;16814;52.118;11.436;2023-07-13T06:11:44;9.27;;;2.50;;
29570;SDS011;16814;52.118;11.436;2023-07-13T06:14:10;5.23;;;2.20;;
29570;SDS011;16814;52.118;11.436;2023-07-13T06:16:35;6.18;;;2.25;;
29570;SDS011;16814;52.118;11.436;2023-07-13T06:19:01;8.82;;;2.42;;
29570;SDS011;16814;52.118;11.436;2023-07-13T06:21:26;6.60;;;1.92;;
29570;SDS011;16814;52.118;11.436;2023-07-13T06:23:52;7.20;;;2.23;;
29570;SDS011;16814;52.118;11.436;2023-07-13T06:26:18;6.47;;;2.30;;
29570;SDS011;16814;52.118;11.436;2023-07-13T06:28:45;9.40;;;2.40;;
29570;SDS011;16814;52.118;11.436;2023-07-13T06:31:11;8.20;;;2.10;;
29570;SDS011;16814;52.118;11.436;2023-07-13T06:33:38;6.22;;;2.20;;
29570;SDS011;16814;52.118;11.436;2023-07-13T06:36:05;11.13;;;2.42;;
29570;SDS011;16814;52.118;11.436;2023-07-13T06:38:32;7.70;;;2.05;;
29570;SDS011;16814;52.118;11.436;2023-07-13T06:40:58;6.93;;;1.98;;
29570;SDS011;16814;52.118;11.436;2023-07-13T06:43:24;8.57;;;2.20;;
29570;SDS011;16814;52.118;11.436;2023-07-13T06:45:50;9.00;;;2.10;;
29570;SDS011;16814;52.118;11.436;2023-07-13T06:48:17;8.00;;;2.40;;
29570;SDS011;16814;52.118;11.436;2023-07-13T06:50:43;14.93;;;2.60;;
29570;SDS011;16814;52.118;11.436;2023-07-13T06:53:10;9.55;;;2.03;;
29570;SDS011;16814;52.118;11.436;2023-07-13T06:55:36;9.82;;;2.50;;
29570;SDS011;16814;52.118;11.436;2023-07-13T06:58:03;7.32;;;1.83;;
29570;SDS011;16814;52.118;11.436;2023-07-13T07:00:28;8.13;;;2.00;;
29570;SDS011;16814;52.118;11.436;2023-07-13T07:02:54;8.05;;;1.58;;
29570;SDS011;16814;52.118;11.436;2023-07-13T07:05:19;11.30;;;2.20;;
29570;SDS011;16814;52.118;11.436;2023-07-13T07:07:46;8.23;;;1.60;;
29570;SDS011;16814;52.118;11.436;2023-07-13T07:10:13;7.63;;;1.80;;
29570;SDS011;16814;52.118;11.436;2023-07-13T07:12:38;7.63;;;1.67;;
29570;SDS011;16814;52.118;11.436;2023-07-13T07:15:04;10.50;;;1.90;;
29570;SDS011;16814;52.118;11.436;2023-07-13T07:17:30;6.97;;;1.48;;
29570;SDS011;16814;52.118;11.436;2023-07-13T07:19:56;7.57;;;2.07;;
29570;SDS011;16814;52.118;11.436;2023-07-13T07:22:21;7.03;;;1.65;;
29570;SDS011;16814;52.118;11.436;2023-07-13T07:24:47;7.10;;;1.80;;
29570;SDS011;16814;52.118;11.436;2023-07-13T07:27:13;7.33;;;1.90;;
29570;SDS011;16814;52.118;11.436;2023-07-13T07:29:38;8.07;;;2.10;;
29570;SDS011;16814;52.118;11.436;2023-07-13T07:32:04;7.32;;;1.67;;
29570;SDS011;16814;52.118;11.436;2023-07-13T07:34:30;6.50;;;1.42;;
29570;SDS011;16814;52.118;11.436;2023-07-13T07:36:58;6.75;;;1.80;;
29570;SDS011;16814;52.118;11.436;2023-07-13T07:39:26;7.13;;;2.03;;
29570;SDS011;16814;52.118;11.436;2023-07-13T07:41:51;6.65;;;1.60;;
29570;SDS011;16814;52.118;11.436;2023-07-13T07:44:17;11.07;;;1.80;;
29570;SDS011;16814;52.118;11.436;2023-07-13T07:46:43;8.13;;;1.80;;
29570;SDS011;16814;52.118;11.436;2023-07-13T07:49:08;9.90;;;1.70;;
29570;SDS011;16814;52.118;11.436;2023-07-13T07:51:34;8.20;;;2.63;;
29570;SDS011;16814;52.118;11.436;2023-07-13T07:54:00;10.38;;;2.55;;
29570;SDS011;16814;52.118;11.436;2023-07-13T07:56:25;7.23;;;2.20;;
29570;SDS011;16814;52.118;11.436;2023-07-13T07:58:51;7.37;;;2.20;;
29570;SDS011;16814;52.118;11.436;2023-07-13T08:01:17;6.77;;;1.90;;
29570;SDS011;16814;52.118;11.436;2023-07-13T08:03:42;6.72;;;2.10;;
29570;SDS011;16814;52.118;11.436;2023-07-13T08:06:08;8.32;;;2.03;;
29570;SDS011;16814;52.118;11.436;2023-07-13T08:08:35;8.37;;;1.90;;
29570;SDS011;16814;52.118;11.436;2023-07-13T08:11:04;7.30;;;1.90;;
29570;SDS011;16814;52.118;11.436;2023-07-13T08:13:32;8.45;;;2.00;;
29570;SDS011;16814;52.118;11.436;2023-07-13T08:15:58;9.05;;;2.25;;
29570;SDS011;16814;52.118;11.436;2023-07-13T08:18:24;6.70;;;1.67;;
29570;SDS011;16814;52.118;11.436;2023-07-13T08:20:50;7.03;;;1.85;;
29570;SDS011;16814;52.118;11.436;2023-07-13T08:23:15;8.43;;;1.98;;
29570;SDS011;16814;52.118;11.436;2023-07-13T08:25:41;7.25;;;1.80;;
29570;SDS011;16814;52.118;11.436;2023-07-13T08:28:07;8.45;;;2.10;;
29570;SDS011;16814;52.118;11.436;2023-07-13T08:30:33;6.97;;;1.50;;
29570;SDS011;16814;52.118;11.436;2023-07-13T08:32:59;8.07;;;1.90;;
29570;SDS011;16814;52.118;11.436;2023-07-13T08:35:25;7.25;;;1.80;;
29570;SDS011;16814;52.118;11.436;2023-07-13T08:37:51;7.50;;;1.95;;
29570;SDS011;16814;52.118;11.436;2023-07-13T08:40:17;8.87;;;1.70;;
29570;SDS011;16814;52.118;11.436;2023-07-13T08:42:45;10.10;;;1.98;;
29570;SDS011;16814;52.118;11.436;2023-07-13T08:50:30;8.00;;;2.00;;
29570;SDS011;16814;52.118;11.436;2023-07-13T08:53:00;9.02;;;1.90;;
29570;SDS011;16814;52.118;11.436;2023-07-13T08:55:30;7.60;;;1.95;;
29570;SDS011;16814;52.118;11.436;2023-07-13T08:58:15;9.30;;;1.65;;
29570;SDS011;16814;52.118;11.436;2023-07-13T09:00:52;7.35;;;2.08;;
29570;SDS011;16814;52.118;11.436;2023-07-13T09:03:40;9.27;;;2.08;;
29570;SDS011;16814;52.118;11.436;2023-07-13T09:06:15;7.72;;;1.70;;
29570;SDS011;16814;52.118;11.436;2023-07-13T09:11:33;7.47;;;1.45;;
29570;SDS011;16814;52.118;11.436;2023-07-13T09:16:56;5.25;;;1.63;;
29570;SDS011;16814;52.118;11.436;2023-07-13T09:19:28;4.55;;;1.48;;
29570;SDS011;16814;52.118;11.436;2023-07-13T09:21:57;6.55;;;1.55;;
29570;SDS011;16814;52.118;11.436;2023-07-13T09:27:17;3.53;;;1.35;;
29570;SDS011;16814;52.118;11.436;2023-07-13T09:29:57;6.25;;;1.50;;
29570;SDS011;16814;52.118;11.436;2023-07-13T09:32:30;4.28;;;1.33;;
29570;SDS011;16814;52.118;11.436;2023-07-13T09:34:57;5.38;;;1.45;;
29570;SDS011;16814;52.118;11.436;2023-07-13T09:37:27;5.57;;;1.30;;
29570;SDS011;16814;52.118;11.436;2023-07-13T09:39:55;3.50;;;1.30;;
29570;SDS011;16814;52.118;11.436;2023-07-13T09:42:22;7.10;;;1.38;;
29570;SDS011;16814;52.118;11.436;2023-07-13T09:47:20;6.67;;;1.17;;
29570;SDS011;16814;52.118;11.436;2023-07-13T09:49:48;6.32;;;1.35;;
29570;SDS011;16814;52.118;11.436;2023-07-13T09:52:26;5.47;;;1.50;;
29570;SDS011;16814;52.118;11.436;2023-07-13T09:54:53;4.43;;;1.40;;
29570;SDS011;16814;52.118;11.436;2023-07-13T09:57:24;4.93;;;1.30;;
29570;SDS011;16814;52.118;11.436;2023-07-13T09:59:52;7.75;;;1.48;;
29570;SDS011;16814;52.118;11.436;2023-07-13T10:02:31;6.55;;;1.42;;
29570;SDS011;16814;52.118;11.436;2023-07-13T10:05:03;11.27;;;2.20;;
29570;SDS011;16814;52.118;11.436;2023-07-13T10:07:31;6.97;;;1.50;;
29570;SDS011;16814;52.118;11.436;2023-07-13T10:10:02;5.57;;;1.43;;
29570;SDS011;16814;52.118;11.436;2023-07-13T10:12:29;5.38;;;1.42;;
29570;SDS011;16814;52.118;11.436;2023-07-13T10:15:00;6.72;;;1.23;;
29570;SDS011;16814;52.118;11.436;2023-07-13T10:17:29;7.18;;;1.25;;
29570;SDS011;16814;52.118;11.436;2023-07-13T10:20:01;6.00;;;1.30;;
29570;SDS011;16814;52.118;11.436;2023-07-13T10:22:36;5.03;;;1.30;;
29570;SDS011;16814;52.118;11.436;2023-07-13T10:25:15;4.53;;;1.30;;
29570;SDS011;16814;52.118;11.436;2023-07-13T10:27:43;5.40;;;1.37;;
29570;SDS011;16814;52.118;11.436;2023-07-13T10:30:29;9.05;;;1.50;;
29570;SDS011;16814;52.118;11.436;2023-07-13T10:33:01;6.80;;;1.50;;
29570;SDS011;16814;52.118;11.436;2023-07-13T10:35:29;5.05;;;1.17;;
29570;SDS011;16814;52.118;11.436;2023-07-13T10:38:06;5.70;;;1.35;;
29570;SDS011;16814;52.118;11.436;2023-07-13T10:40:40;7.00;;;1.88;;
29570;SDS011;16814;52.118;11.436;2023-07-13T10:43:26;2.80;;;1.00;;
29570;SDS011;16814;52.118;11.436;2023-07-13T10:45:57;6.00;;;1.23;;
29570;SDS011;16814;52.118;11.436;2023-07-13T10:48:25;5.22;;;1.05;;
29570;SDS011;16814;52.118;11.436;2023-07-13T10:50:52;5.70;;;1.30;;
29570;SDS011;16814;52.118;11.436;2023-07-13T10:53:36;7.07;;;1.50;;
29570;SDS011;16814;52.118;11.436;2023-07-13T10:56:05;3.38;;;0.90;;
29570;SDS011;16814;52.118;11.436;2023-07-13T10:59:02;2.85;;;0.75;;
29570;SDS011;16814;52.118;11.436;2023-07-13T11:01:40;4.45;;;1.10;;
29570;SDS011;16814;52.118;11.436;2023-07-13T11:04:20;3.72;;;1.08;;
29570;SDS011;16814;52.118;11.436;2023-07-13T11:06:47;5.03;;;1.10;;
29570;SDS011;16814;52.118;11.436;2023-07-13T11:09:31;4.15;;;1.00;;
29570;SDS011;16814;52.118;11.436;2023-07-13T11:12:01;4.90;;;1.10;;
29570;SDS011;16814;52.118;11.436;2023-07-13T11:22:48;4.57;;;1.40;;
29570;SDS011;16814;52.118;11.436;2023-07-13T11:27:51;3.53;;;1.08;;
29570;SDS011;16814;52.118;11.436;2023-07-13T11:32:50;4.53;;;1.30;;
29570;SDS011;16814;52.118;11.436;2023-07-13T11:35:27;4.18;;;1.20;;
29570;SDS011;16814;52.118;11.436;2023-07-13T11:37:53;3.97;;;1.08;;
29570;SDS011;16814;52.118;11.436;2023-07-13T11:40:19;5.00;;;1.10;;
29570;SDS011;16814;52.118;11.436;2023-07-13T11:42:51;5.93;;;1.00;;
29570;SDS011;16814;52.118;11.436;2023-07-13T11:45:21;6.63;;;1.20;;
29570;SDS011;16814;52.118;11.436;2023-07-13T11:47:48;7.00;;;1.20;;
29570;SDS011;16814;52.118;11.436;2023-07-13T11:50:18;5.25;;;1.27;;
29570;SDS011;16814;52.118;11.436;2023-07-13T11:52:45;4.15;;;1.10;;
29570;SDS011;16814;52.118;11.436;2023-07-13T11:55:14;3.73;;;1.10;;
29570;SDS011;16814;52.118;11.436;2023-07-13T11:57:44;4.90;;;1.23;;
29570;SDS011;16814;52.118;11.436;2023-07-13T12:00:16;3.47;;;1.10;;
29570;SDS011;16814;52.118;11.436;2023-07-13T12:02:46;6.55;;;1.13;;
29570;SDS011;16814;52.118;11.436;2023-07-13T12:05:15;2.40;;;0.80;;
29570;SDS011;16814;52.118;11.436;2023-07-13T12:07:48;5.40;;;1.00;;
29570;SDS011;16814;52.118;11.436;2023-07-13T12:10:19;3.40;;;0.90;;
29570;SDS011;16814;52.118;11.436;2023-07-13T12:12:53;3.08;;;1.00;;
29570;SDS011;16814;52.118;11.436;2023-07-13T12:15:58;2.33;;;0.90;;
29570;SDS011;16814;52.118;11.436;2023-07-13T12:18:20;2.78;;;1.00;;
29570;SDS011;16814;52.118;11.436;2023-07-13T12:20:50;3.25;;;0.95;;
29570;SDS011;16814;52.118;11.436;2023-07-13T12:23:24;5.20;;;1.08;;
29570;SDS011;16814;52.118;11.436;2023-07-13T12:25:54;2.97;;;1.00;;
29570;SDS011;16814;52.118;11.436;2023-07-13T12:28:20;5.20;;;1.17;;
29570;SDS011;16814;52.118;11.436;2023-07-13T12:30:49;2.85;;;1.00;;
29570;SDS011;16814;52.118;11.436;2023-07-13T12:33:23;4.00;;;1.20;;
29570;SDS011;16814;52.118;11.436;2023-07-13T12:35:53;3.00;;;0.95;;
29570;SDS011;16814;52.118;11.436;2023-07-13T12:38:18;3.17;;;0.98;;
29570;SDS011;16814;52.118;11.436;2023-07-13T12:40:48;4.32;;;1.33;;
29570;SDS011;16814;52.118;11.436;2023-07-13T12:43:15;2.83;;;0.90;;
29570;SDS011;16814;52.118;11.436;2023-07-13T12:48:28;3.90;;;1.10;;
29570;SDS011;16814;52.118;11.436;2023-07-13T12:50:55;3.77;;;0.90;;
29570;SDS011;16814;52.118;11.436;2023-07-13T12:53:29;2.10;;;0.88;;
29570;SDS011;16814;52.118;11.436;2023-07-13T12:55:59;4.75;;;1.00;;
29570;SDS011;16814;52.118;11.436;2023-07-13T12:58:38;13.75;;;1.25;;
29570;SDS011;16814;52.118;11.436;2023-07-13T13:01:10;5.50;;;1.20;;
29570;SDS011;16814;52.118;11.436;2023-07-13T13:03:39;6.85;;;1.30;;
29570;SDS011;16814;52.118;11.436;2023-07-13T13:08:45;3.80;;;1.00;;
29570;SDS011;16814;52.118;11.436;2023-07-13T13:11:13;4.50;;;1.20;;
29570;SDS011;16814;52.118;11.436;2023-07-13T13:13:41;4.57;;;1.13;;
29570;SDS011;16814;52.118;11.436;2023-07-13T13:18:51;6.83;;;1.60;;
29570;SDS011;16814;52.118;11.436;2023-07-13T13:21:19;2.47;;;1.10;;
29570;SDS011;16814;52.118;11.436;2023-07-13T13:23:45;3.05;;;1.00;;
29570;SDS011;16814;52.118;11.436;2023-07-13T13:26:11;2.15;;;0.95;;
29570;SDS011;16814;52.118;11.436;2023-07-13T13:28:42;5.10;;;1.25;;
29570;SDS011;16814;52.118;11.436;2023-07-13T13:31:09;3.88;;;1.27;;
29570;SDS011;16814;52.118;11.436;2023-07-13T13:33:40;5.00;;;1.50;;
29570;SDS011;16814;52.118;11.436;2023-07-13T13:36:21;2.63;;;1.10;;
29570;SDS011;16814;52.118;11.436;2023-07-13T13:38:48;2.63;;;1.17;;
29570;SDS011;16814;52.118;11.436;2023-07-13T13:41:15;3.22;;;1.20;;
29570;SDS011;16814;52.118;11.436;2023-07-13T13:43:41;2.83;;;1.20;;
29570;SDS011;16814;52.118;11.436;2023-07-13T13:46:12;4.23;;;1.10;;
29570;SDS011;16814;52.118;11.436;2023-07-13T13:48:43;2.53;;;1.15;;
29570;SDS011;16814;52.118;11.436;2023-07-13T13:51:14;3.10;;;1.30;;
29570;SDS011;16814;52.118;11.436;2023-07-13T13:53:42;10.60;;;1.40;;
29570;SDS011;16814;52.118;11.436;2023-07-13T13:56:08;8.63;;;1.38;;
29570;SDS011;16814;52.118;11.436;2023-07-13T13:58:33;4.13;;;1.30;;
29570;SDS011;16814;52.118;11.436;2023-07-13T14:00:59;2.60;;;1.30;;
29570;SDS011;16814;52.118;11.436;2023-07-13T14:03:26;3.87;;;1.10;;
29570;SDS011;16814;52.118;11.436;2023-07-13T14:05:53;6.40;;;1.40;;
29570;SDS011;16814;52.118;11.436;2023-07-13T14:08:20;4.97;;;1.47;;
29570;SDS011;16814;52.118;11.436;2023-07-13T14:10:47;6.93;;;1.30;;
29570;SDS011;16814;52.118;11.436;2023-07-13T14:13:17;3.65;;;1.30;;
29570;SDS011;16814;52.118;11.436;2023-07-13T14:15:46;3.63;;;1.30;;
29570;SDS011;16814;52.118;11.436;2023-07-13T14:18:12;3.95;;;1.30;;
29570;SDS011;16814;52.118;11.436;2023-07-13T14:20:42;2.83;;;1.37;;
29570;SDS011;16814;52.118;11.436;2023-07-13T14:23:09;3.50;;;1.13;;
29570;SDS011;16814;52.118;11.436;2023-07-13T14:25:34;4.17;;;1.40;;
29570;SDS011;16814;52.118;11.436;2023-07-13T14:28:04;4.35;;;1.33;;
29570;SDS011;16814;52.118;11.436;2023-07-13T14:30:47;4.35;;;1.45;;
29570;SDS011;16814;52.118;11.436;2023-07-13T14:33:13;6.38;;;1.45;;
29570;SDS011;16814;52.118;11.436;2023-07-13T14:35:38;6.33;;;1.10;;
29570;SDS011;16814;52.118;11.436;2023-07-13T14:38:04;4.93;;;1.33;;
29570;SDS011;16814;52.118;11.436;2023-07-13T14:40:33;3.72;;;1.25;;
29570;SDS011;16814;52.118;11.436;2023-07-13T14:42:58;5.55;;;1.15;;
29570;SDS011;16814;52.118;11.436;2023-07-13T14:45:24;10.57;;;1.70;;
29570;SDS011;16814;52.118;11.436;2023-07-13T14:47:50;4.17;;;1.40;;
29570;SDS011;16814;52.118;11.436;2023-07-13T14:50:17;3.42;;;1.25;;
29570;SDS011;16814;52.118;11.436;2023-07-13T14:52:51;5.38;;;1.48;;
29570;SDS011;16814;52.118;11.436;2023-07-13T14:55:17;2.90;;;1.40;;
29570;SDS011;16814;52.118;11.436;2023-07-13T14:57:44;4.95;;;1.42;;
29570;SDS011;16814;52.118;11.436;2023-07-13T15:00:14;3.10;;;1.27;;
29570;SDS011;16814;52.118;11.436;2023-07-13T15:02:43;4.47;;;1.25;;
29570;SDS011;16814;52.118;11.436;2023-07-13T15:05:22;4.97;;;1.50;;
29570;SDS011;16814;52.118;11.436;2023-07-13T15:07:50;6.10;;;1.42;;
29570;SDS011;16814;52.118;11.436;2023-07-13T15:10:19;4.07;;;1.38;;
29570;SDS011;16814;52.118;11.436;2023-07-13T15:12:46;2.72;;;1.50;;
29570;SDS011;16814;52.118;11.436;2023-07-13T15:15:12;4.67;;;1.50;;
29570;SDS011;16814;52.118;11.436;2023-07-13T15:17:39;2.67;;;1.20;;
29570;SDS011;16814;52.118;11.436;2023-07-13T15:20:12;3.38;;;1.35;;